Temp: 2.4°C   Baro: 1019.3mb
  Wind: 2.0mph   Dir: SSE (152°)
  Rain: 0.0mm (0.0mm/hr)
  Solar: 0W/m2  Hum: 79%
 
Bath Spa Weather Historical Data
Daily Summary for October 12, 2018 Units:  Both    English   Metric
Next Day »
Daily Weekly Monthly Yearly Custom
  High: Low: Average:
Temperature: 65.1 °F /  18.4 °C 56.1 °F /  13.4 °C 61 °F /  16.1 °C
Dew Point: 61.9 °F /  16.6 °C 52 °F /  11.1 °C 57.6 °F /  14.2 °C
Humidity: 93% 84% 89%
Wind Speed: 36mph /  57.9km/h - 9.3mph /  15km/h
Wind Gust: 36mph /  57.9km/h - -
Wind direction- - South
Pressure: 29.8 in /  1008.4 hPa 29.6 in /  1003.9 hPa -
Precipitation: 0.4 in /  10.2 mm    
Historical Graphs
 
 
Tabular Data for October 12, 2018
Time Temperature Dew Point Pressure Wind direction Wind Speed Wind Gust Humidity Rainfall Rate (Hourly) solar
00:04 56.3 °F /  13.5 °C 53.1 °F /  11.7 °C 29.7in /  1005.0hPa South 8.9mph /  14.3km/h 9mph /  14.5km/h 89% 0in /  0.0mm 0.00 W/m2
00:09 56.5 °F /  13.6 °C 53.2 °F /  11.8 °C 29.7in /  1005.3hPa Calm   7mph /  11.3km/h 89% 0in /  0.0mm 0.00 W/m2
00:14 56.5 °F /  13.6 °C 53.2 °F /  11.8 °C 29.7in /  1005.3hPa SSW 2mph /  3.2km/h 9mph /  14.5km/h 89% 0in /  0.0mm 0.00 W/m2
00:19 56.3 °F /  13.5 °C 52.9 °F /  11.6 °C 29.7in /  1005.3hPa SSW 4.9mph /  7.9km/h 7mph /  11.3km/h 88% 0in /  0.0mm 0.00 W/m2
00:24 56.3 °F /  13.5 °C 52.9 °F /  11.6 °C 29.7in /  1005.3hPa SSW 2.9mph /  4.7km/h 9mph /  14.5km/h 88% 0in /  0.0mm 0.00 W/m2
00:29 56.3 °F /  13.5 °C 52.9 °F /  11.6 °C 29.7in /  1005.3hPa SSW 4.9mph /  7.9km/h 12mph /  19.3km/h 88% 0in /  0.0mm 0.00 W/m2
00:34 56.3 °F /  13.5 °C 52.5 °F /  11.4 °C 29.7in /  1005.3hPa SSW 2mph /  3.2km/h 9mph /  14.5km/h 87% 0in /  0.0mm 0.00 W/m2
00:39 56.3 °F /  13.5 °C 52.5 °F /  11.4 °C 29.7in /  1005.3hPa SSE 4.9mph /  7.9km/h 10mph /  16.1km/h 87% 0in /  0.0mm 0.00 W/m2
00:44 56.3 °F /  13.5 °C 52.5 °F /  11.4 °C 29.7in /  1005.0hPa Calm   5mph /  8.0km/h 87% 0in /  0.0mm 0.00 W/m2
00:49 56.3 °F /  13.5 °C 52.5 °F /  11.4 °C 29.7in /  1005.0hPa South 4mph /  6.4km/h 10mph /  16.1km/h 87% 0in /  0.0mm 0.00 W/m2
00:54 56.1 °F /  13.4 °C 52.3 °F /  11.3 °C 29.7in /  1005.0hPa SSW 4mph /  6.4km/h 5mph /  8.0km/h 87% 0in /  0.0mm 0.00 W/m2
00:59 56.3 °F /  13.5 °C 52.5 °F /  11.4 °C 29.7in /  1005.3hPa Calm   4mph /  6.4km/h 87% 0in /  0.0mm 0.00 W/m2
01:04 56.3 °F /  13.5 °C 52.5 °F /  11.4 °C 29.7in /  1005.3hPa South 6.9mph /  11.1km/h 7mph /  11.3km/h 87% 0in /  0.0mm 0.00 W/m2
01:09 56.3 °F /  13.5 °C 52.2 °F /  11.2 °C 29.7in /  1005.3hPa Calm   1mph /  1.6km/h 86% 0in /  0.0mm 0.00 W/m2
01:14 56.3 °F /  13.5 °C 52.2 °F /  11.2 °C 29.7in /  1005.3hPa SSW 4mph /  6.4km/h 6mph /  9.7km/h 86% 0in /  0.0mm 0.00 W/m2
01:19 56.1 °F /  13.4 °C 52.3 °F /  11.3 °C 29.7in /  1005.3hPa South 6.9mph /  11.1km/h 7mph /  11.3km/h 87% 0in /  0.0mm 0.00 W/m2
01:24 56.1 °F /  13.4 °C 52 °F /  11.1 °C 29.7in /  1005.3hPa SSE 2.9mph /  4.7km/h 4mph /  6.4km/h 86% 0in /  0.0mm 0.00 W/m2
01:29 56.3 °F /  13.5 °C 52.2 °F /  11.2 °C 29.7in /  1005.3hPa SSW 2.9mph /  4.7km/h 12mph /  19.3km/h 86% 0in /  0.0mm 0.00 W/m2
01:34 56.3 °F /  13.5 °C 52.2 °F /  11.2 °C 29.7in /  1005.3hPa Calm   3mph /  4.8km/h 86% 0in /  0.0mm 0.00 W/m2
01:39 56.1 °F /  13.4 °C 52 °F /  11.1 °C 29.7in /  1005.3hPa SSE 0.9mph /  1.4km/h 8mph /  12.9km/h 86% 0in /  0.0mm 0.00 W/m2
01:44 56.1 °F /  13.4 °C 52 °F /  11.1 °C 29.7in /  1005.0hPa SSW 0.9mph /  1.4km/h 7mph /  11.3km/h 86% 0in /  0.0mm 0.00 W/m2
01:49 56.1 °F /  13.4 °C 52 °F /  11.1 °C 29.7in /  1005.0hPa South 2.9mph /  4.7km/h 7mph /  11.3km/h 86% 0in /  0.0mm 0.00 W/m2
01:54 56.1 °F /  13.4 °C 52 °F /  11.1 °C 29.7in /  1005.0hPa SSW 2mph /  3.2km/h 7mph /  11.3km/h 86% 0in /  0.0mm 0.00 W/m2
01:59 56.1 °F /  13.4 °C 52 °F /  11.1 °C 29.7in /  1005.0hPa SSE 6.9mph /  11.1km/h 11mph /  17.7km/h 86% 0in /  0.0mm 0.00 W/m2
02:04 56.3 °F /  13.5 °C 52.2 °F /  11.2 °C 29.7in /  1005.0hPa South 2mph /  3.2km/h 11mph /  17.7km/h 86% 0in /  0.0mm 0.00 W/m2
02:09 56.3 °F /  13.5 °C 52.2 °F /  11.2 °C 29.7in /  1005.0hPa SSW 6.9mph /  11.1km/h 11mph /  17.7km/h 86% 0in /  0.0mm 0.00 W/m2
02:14 56.7 °F /  13.7 °C 52.5 °F /  11.4 °C 29.7in /  1005.0hPa SSE 4.9mph /  7.9km/h 16mph /  25.7km/h 86% 0in /  0.0mm 0.00 W/m2
02:19 56.7 °F /  13.7 °C 52.5 °F /  11.4 °C 29.7in /  1005.0hPa SSW 2mph /  3.2km/h 15mph /  24.1km/h 86% 0in /  0.0mm 0.00 W/m2
02:24 56.5 °F /  13.6 °C 52.3 °F /  11.3 °C 29.7in /  1005.0hPa SW 6.9mph /  11.1km/h 10mph /  16.1km/h 86% 0in /  0.0mm 0.00 W/m2
02:29 56.7 °F /  13.7 °C 52.2 °F /  11.2 °C 29.7in /  1005.0hPa SSW 6.9mph /  11.1km/h 12mph /  19.3km/h 85% 0in /  0.0mm 0.00 W/m2
02:34 56.7 °F /  13.7 °C 52.2 °F /  11.2 °C 29.7in /  1004.6hPa SSE 4mph /  6.4km/h 6mph /  9.7km/h 85% 0in /  0.0mm 0.00 W/m2
02:39 56.5 °F /  13.6 °C 52 °F /  11.1 °C 29.7in /  1004.6hPa SE 4.9mph /  7.9km/h 9mph /  14.5km/h 85% 0in /  0.0mm 0.00 W/m2
02:44 56.5 °F /  13.6 °C 52.3 °F /  11.3 °C 29.7in /  1004.6hPa SSE 2mph /  3.2km/h 8mph /  12.9km/h 86% 0in /  0.0mm 0.00 W/m2
02:54 56.7 °F /  13.7 °C 52.5 °F /  11.4 °C 29.7in /  1004.3hPa South 8.1mph /  13.0km/h 10mph /  16.1km/h 86% 0in /  0.0mm 0.00 W/m2
02:59 56.8 °F /  13.8 °C 52.7 °F /  11.5 °C 29.7in /  1004.6hPa SSE 6mph /  9.7km/h 16mph /  25.7km/h 86% 0in /  0.0mm 0.00 W/m2
03:04 57 °F /  13.9 °C 52.5 °F /  11.4 °C 29.7in /  1004.3hPa SSW 6mph /  9.7km/h 15mph /  24.1km/h 85% 0in /  0.0mm 0.00 W/m2
03:09 57 °F /  13.9 °C 52.9 °F /  11.6 °C 29.7in /  1004.3hPa South 8.1mph /  13.0km/h 13mph /  20.9km/h 86% 0in /  0.0mm 0.00 W/m2
03:14 57.2 °F /  14.0 °C 53.1 °F /  11.7 °C 29.7in /  1004.3hPa SE 8.1mph /  13.0km/h 14mph /  22.5km/h 86% 0in /  0.0mm 0.00 W/m2
03:19 57.2 °F /  14.0 °C 53.1 °F /  11.7 °C 29.7in /  1004.3hPa SSW 14.1mph /  22.7km/h 16mph /  25.7km/h 86% 0in /  0.0mm 0.00 W/m2
03:24 57.6 °F /  14.2 °C 53.4 °F /  11.9 °C 29.7in /  1004.3hPa SSW 4.9mph /  7.9km/h 11mph /  17.7km/h 86% 0in /  0.0mm 0.00 W/m2
03:29 57.7 °F /  14.3 °C 53.6 °F /  12.0 °C 29.7in /  1004.3hPa SSE 15mph /  24.1km/h 15mph /  24.1km/h 86% 0in /  0.0mm 0.00 W/m2
03:34 58.1 °F /  14.5 °C 54 °F /  12.2 °C 29.7in /  1004.3hPa SSW 6.9mph /  11.1km/h 12mph /  19.3km/h 86% 0in /  0.0mm 0.00 W/m2
03:44 58.1 °F /  14.5 °C 54 °F /  12.2 °C 29.7in /  1004.3hPa South 8.1mph /  13.0km/h 11mph /  17.7km/h 86% 0in /  0.0mm 0.00 W/m2
03:49 58.3 °F /  14.6 °C 54.1 °F /  12.3 °C 29.7in /  1004.3hPa South 11mph /  17.7km/h 14mph /  22.5km/h 86% 0in /  0.0mm 0.00 W/m2
03:55 58.5 °F /  14.7 °C 54.3 °F /  12.4 °C 29.7in /  1004.3hPa South 12.1mph /  19.5km/h 16mph /  25.7km/h 86% 0in /  0.0mm 0.00 W/m2
04:00 58.5 °F /  14.7 °C 54.3 °F /  12.4 °C 29.6in /  1003.9hPa South 6.9mph /  11.1km/h 13mph /  20.9km/h 86% 0in /  0.0mm 0.00 W/m2
04:05 58.6 °F /  14.8 °C 54.1 °F /  12.3 °C 29.6in /  1003.9hPa SSE 6mph /  9.7km/h 15mph /  24.1km/h 85% 0in /  0.0mm 0.00 W/m2
04:10 58.5 °F /  14.7 °C 54.3 °F /  12.4 °C 29.6in /  1003.9hPa SSW 8.9mph /  14.3km/h 18mph /  29.0km/h 86% 0in /  0.0mm 0.00 W/m2
04:15 58.6 °F /  14.8 °C 54.1 °F /  12.3 °C 29.6in /  1003.9hPa South 17mph /  27.4km/h 18mph /  29.0km/h 85% 0.01in /  0.3mm 0.00 W/m2
04:20 58.5 °F /  14.7 °C 54.3 °F /  12.4 °C 29.6in /  1003.9hPa South 6.9mph /  11.1km/h 12mph /  19.3km/h 86% 0.01in /  0.3mm 0.00 W/m2
04:25 58.6 °F /  14.8 °C 54.5 °F /  12.5 °C 29.7in /  1004.3hPa South 10.1mph /  16.3km/h 18mph /  29.0km/h 86% 0.01in /  0.3mm 0.00 W/m2
04:30 58.6 °F /  14.8 °C 54.5 °F /  12.5 °C 29.7in /  1004.3hPa SW 10.1mph /  16.3km/h 14mph /  22.5km/h 86% 0.01in /  0.3mm 0.00 W/m2
04:35 58.8 °F /  14.9 °C 54.3 °F /  12.4 °C 29.7in /  1004.3hPa SW 6mph /  9.7km/h 14mph /  22.5km/h 85% 0.01in /  0.3mm 0.00 W/m2
04:40 58.8 °F /  14.9 °C 54.3 °F /  12.4 °C 29.7in /  1004.6hPa SSW 14.1mph /  22.7km/h 15mph /  24.1km/h 85% 0.01in /  0.3mm 0.00 W/m2
04:45 58.6 °F /  14.8 °C 54.5 °F /  12.5 °C 29.7in /  1004.6hPa South 4.9mph /  7.9km/h 14mph /  22.5km/h 86% 0.01in /  0.3mm 0.00 W/m2
04:50 58.6 °F /  14.8 °C 54.5 °F /  12.5 °C 29.7in /  1004.6hPa SSE 17mph /  27.4km/h 17mph /  27.4km/h 86% 0.01in /  0.3mm 0.00 W/m2
04:55 58.6 °F /  14.8 °C 54.5 °F /  12.5 °C 29.7in /  1004.6hPa SSW 8.1mph /  13.0km/h 17mph /  27.4km/h 86% 0.01in /  0.3mm 0.00 W/m2
05:00 58.5 °F /  14.7 °C 54.3 °F /  12.4 °C 29.7in /  1004.3hPa South 6.9mph /  11.1km/h 15mph /  24.1km/h 86% 0.01in /  0.3mm 0.00 W/m2
05:05 58.5 °F /  14.7 °C 54.3 °F /  12.4 °C 29.7in /  1004.6hPa South 10.1mph /  16.3km/h 17mph /  27.4km/h 86% 0.02in /  0.5mm 0.00 W/m2
05:10 58.5 °F /  14.7 °C 54.3 °F /  12.4 °C 29.7in /  1004.3hPa South 6mph /  9.7km/h 13mph /  20.9km/h 86% 0.02in /  0.5mm 0.00 W/m2
05:15 58.1 °F /  14.5 °C 54 °F /  12.2 °C 29.7in /  1004.3hPa South 8.9mph /  14.3km/h 15mph /  24.1km/h 86% 0.01in /  0.3mm 0.00 W/m2
05:20 58.1 °F /  14.5 °C 54.3 °F /  12.4 °C 29.6in /  1003.9hPa SSE 19mph /  30.6km/h 19mph /  30.6km/h 87% 0.01in /  0.3mm 0.00 W/m2
05:25 58.1 °F /  14.5 °C 54.3 °F /  12.4 °C 29.6in /  1003.9hPa South 11mph /  17.7km/h 20mph /  32.2km/h 87% 0.01in /  0.3mm 0.00 W/m2
05:30 57.9 °F /  14.4 °C 54.1 °F /  12.3 °C 29.6in /  1003.9hPa South 12.1mph /  19.5km/h 15mph /  24.1km/h 87% 0.02in /  0.5mm 0.00 W/m2
05:35 57.9 °F /  14.4 °C 54.3 °F /  12.4 °C 29.6in /  1003.9hPa SSW 12.1mph /  19.5km/h 17mph /  27.4km/h 88% 0.02in /  0.5mm 0.00 W/m2
05:40 57.9 °F /  14.4 °C 54.3 °F /  12.4 °C 29.6in /  1003.9hPa South 14.1mph /  22.7km/h 21mph /  33.8km/h 88% 0.02in /  0.5mm 0.00 W/m2
05:45 58.1 °F /  14.5 °C 54.5 °F /  12.5 °C 29.6in /  1003.9hPa SSW 8.1mph /  13.0km/h 18mph /  29.0km/h 88% 0.02in /  0.5mm 0.00 W/m2
05:50 57.9 °F /  14.4 °C 54.3 °F /  12.4 °C 29.6in /  1003.9hPa SSW 0.9mph /  1.4km/h 16mph /  25.7km/h 88% 0.02in /  0.5mm 0.00 W/m2
05:55 58.1 °F /  14.5 °C 54.5 °F /  12.5 °C 29.6in /  1003.9hPa SSE 4.9mph /  7.9km/h 14mph /  22.5km/h 88% 0.02in /  0.5mm 0.00 W/m2
06:00 58.5 °F /  14.7 °C 54.9 °F /  12.7 °C 29.6in /  1003.9hPa SSW 10.1mph /  16.3km/h 21mph /  33.8km/h 88% 0.02in /  0.5mm 0.00 W/m2
06:05 58.5 °F /  14.7 °C 54.9 °F /  12.7 °C 29.7in /  1004.3hPa South 17mph /  27.4km/h 20mph /  32.2km/h 88% 0.01in /  0.3mm 0.00 W/m2
06:10 58.6 °F /  14.8 °C 55 °F /  12.8 °C 29.7in /  1004.3hPa SSW 6.9mph /  11.1km/h 20mph /  32.2km/h 88% 0.01in /  0.3mm 0.00 W/m2
06:15 58.6 °F /  14.8 °C 55 °F /  12.8 °C 29.7in /  1004.3hPa SSW 17mph /  27.4km/h 24mph /  38.6km/h 88% 0.02in /  0.5mm 0.00 W/m2
06:20 58.6 °F /  14.8 °C 55 °F /  12.8 °C 29.7in /  1004.3hPa South 6.9mph /  11.1km/h 15mph /  24.1km/h 88% 0.02in /  0.5mm 0.00 W/m2
06:25 58.6 °F /  14.8 °C 55 °F /  12.8 °C 29.7in /  1004.6hPa South 8.9mph /  14.3km/h 15mph /  24.1km/h 88% 0.02in /  0.5mm 0.00 W/m2
06:30 58.6 °F /  14.8 °C 55 °F /  12.8 °C 29.7in /  1004.6hPa SSW 13mph /  20.9km/h 19mph /  30.6km/h 88% 0.01in /  0.3mm 0.00 W/m2
06:35 58.8 °F /  14.9 °C 55.2 °F /  12.9 °C 29.7in /  1004.3hPa South 16.1mph /  25.9km/h 22mph /  35.4km/h 88% 0.01in /  0.3mm 0.00 W/m2
06:40 59 °F /  15.0 °C 55.4 °F /  13.0 °C 29.7in /  1004.6hPa South 10.1mph /  16.3km/h 20mph /  32.2km/h 88% 0.01in /  0.3mm 0.00 W/m2
06:45 58.8 °F /  14.9 °C 55.2 °F /  12.9 °C 29.7in /  1004.6hPa SW 13mph /  20.9km/h 22mph /  35.4km/h 88% 0.01in /  0.3mm 0.00 W/m2
06:50 59.2 °F /  15.1 °C 55.6 °F /  13.1 °C 29.7in /  1004.6hPa SSE 26mph /  41.8km/h 26mph /  41.8km/h 88% 0.01in /  0.3mm 0.00 W/m2
06:55 59.4 °F /  15.2 °C 55.8 °F /  13.2 °C 29.7in /  1004.6hPa South 16.1mph /  25.9km/h 20mph /  32.2km/h 88% 0.02in /  0.5mm 0.00 W/m2
07:00 59.4 °F /  15.2 °C 55.8 °F /  13.2 °C 29.7in /  1004.6hPa South 4.9mph /  7.9km/h 20mph /  32.2km/h 88% 0.02in /  0.5mm 0.00 W/m2
07:05 59 °F /  15.0 °C 55.4 °F /  13.0 °C 29.7in /  1004.6hPa SSE 12.1mph /  19.5km/h 21mph /  33.8km/h 88% 0.02in /  0.5mm 0.00 W/m2
07:10 58.8 °F /  14.9 °C 55.6 °F /  13.1 °C 29.7in /  1004.6hPa SW 13mph /  20.9km/h 26mph /  41.8km/h 89% 0.02in /  0.5mm 0.00 W/m2
07:15 58.6 °F /  14.8 °C 55.4 °F /  13.0 °C 29.7in /  1004.6hPa SSW 4.9mph /  7.9km/h 11mph /  17.7km/h 89% 0.04in /  1.0mm 0.00 W/m2
07:20 58.6 °F /  14.8 °C 55.8 °F /  13.2 °C 29.7in /  1004.6hPa SSW 13mph /  20.9km/h 22mph /  35.4km/h 90% 0.04in /  1.0mm 0.00 W/m2
07:25 58.5 °F /  14.7 °C 55.6 °F /  13.1 °C 29.7in /  1004.6hPa South 8.1mph /  13.0km/h 17mph /  27.4km/h 90% 0.05in /  1.3mm 0.00 W/m2
07:30 58.5 °F /  14.7 °C 55.8 °F /  13.2 °C 29.7in /  1004.6hPa SSW 6.9mph /  11.1km/h 20mph /  32.2km/h 91% 0.07in /  1.8mm 0.00 W/m2
07:35 58.5 °F /  14.7 °C 55.8 °F /  13.2 °C 29.7in /  1004.6hPa South 6mph /  9.7km/h 11mph /  17.7km/h 91% 0.07in /  1.8mm 0.00 W/m2
07:40 58.6 °F /  14.8 °C 55.9 °F /  13.3 °C 29.7in /  1004.6hPa South 8.1mph /  13.0km/h 17mph /  27.4km/h 91% 0.08in /  2.0mm 0.00 W/m2
07:45 58.6 °F /  14.8 °C 55.9 °F /  13.3 °C 29.7in /  1004.6hPa South 13mph /  20.9km/h 18mph /  29.0km/h 91% 0.09in /  2.3mm 0.00 W/m2
07:50 58.6 °F /  14.8 °C 55.9 °F /  13.3 °C 29.7in /  1005.0hPa South 6.9mph /  11.1km/h 17mph /  27.4km/h 91% 0.09in /  2.3mm 0.00 W/m2
07:55 58.8 °F /  14.9 °C 56.1 °F /  13.4 °C 29.7in /  1005.0hPa South 6.9mph /  11.1km/h 15mph /  24.1km/h 91% 0.08in /  2.0mm 0.00 W/m2
08:00 58.8 °F /  14.9 °C 56.1 °F /  13.4 °C 29.7in /  1005.0hPa SSW 14.1mph /  22.7km/h 17mph /  27.4km/h 91% 0.09in /  2.3mm 0.00 W/m2
08:05 58.8 °F /  14.9 °C 56.1 °F /  13.4 °C 29.7in /  1005.0hPa SSW 8.1mph /  13.0km/h 12mph /  19.3km/h 91% 0.09in /  2.3mm 0.00 W/m2
08:10 59 °F /  15.0 °C 56.3 °F /  13.5 °C 29.7in /  1005.0hPa South 12.1mph /  19.5km/h 20mph /  32.2km/h 91% 0.07in /  1.8mm 5.00 W/m2
08:15 59 °F /  15.0 °C 56.3 °F /  13.5 °C 29.7in /  1005.3hPa South 8.1mph /  13.0km/h 15mph /  24.1km/h 91% 0.07in /  1.8mm 0.00 W/m2
08:20 59.2 °F /  15.1 °C 56.5 °F /  13.6 °C 29.7in /  1005.3hPa South 13mph /  20.9km/h 22mph /  35.4km/h 91% 0.06in /  1.5mm 0.00 W/m2
08:25 59.4 °F /  15.2 °C 56.7 °F /  13.7 °C 29.7in /  1005.3hPa SSW 4mph /  6.4km/h 16mph /  25.7km/h 91% 0.05in /  1.3mm 5.00 W/m2
08:30 59.4 °F /  15.2 °C 56.7 °F /  13.7 °C 29.7in /  1005.3hPa South 4.9mph /  7.9km/h 12mph /  19.3km/h 91% 0.03in /  0.8mm 5.00 W/m2
08:35 59.7 °F /  15.4 °C 56.8 °F /  13.8 °C 29.7in /  1005.3hPa SSE 11mph /  17.7km/h 16mph /  25.7km/h 90% 0.03in /  0.8mm 5.00 W/m2
08:40 59.9 °F /  15.5 °C 57 °F /  13.9 °C 29.7in /  1005.3hPa South 8.9mph /  14.3km/h 19mph /  30.6km/h 90% 0.02in /  0.5mm 5.00 W/m2
08:45 59.9 °F /  15.5 °C 57 °F /  13.9 °C 29.7in /  1005.3hPa SSW 8.1mph /  13.0km/h 13mph /  20.9km/h 90% 0.02in /  0.5mm 7.00 W/m2
08:50 59.7 °F /  15.4 °C 56.8 °F /  13.8 °C 29.7in /  1005.3hPa South 4mph /  6.4km/h 16mph /  25.7km/h 90% 0.03in /  0.8mm 7.00 W/m2
08:55 59.4 °F /  15.2 °C 56.7 °F /  13.7 °C 29.7in /  1005.0hPa South 14.1mph /  22.7km/h 14mph /  22.5km/h 91% 0.03in /  0.8mm 7.00 W/m2
09:00 59.4 °F /  15.2 °C 56.7 °F /  13.7 °C 29.7in /  1005.0hPa South 6mph /  9.7km/h 14mph /  22.5km/h 91% 0.02in /  0.5mm 12.00 W/m2
09:05 59.4 °F /  15.2 °C 56.7 °F /  13.7 °C 29.7in /  1005.0hPa South 4mph /  6.4km/h 9mph /  14.5km/h 91% 0.01in /  0.3mm 14.00 W/m2
09:10 59.4 °F /  15.2 °C 57 °F /  13.9 °C 29.7in /  1005.3hPa South 12.1mph /  19.5km/h 15mph /  24.1km/h 92% 0.01in /  0.3mm 16.00 W/m2
09:15 59.5 °F /  15.3 °C 56.8 °F /  13.8 °C 29.7in /  1005.3hPa SSW 6mph /  9.7km/h 10mph /  16.1km/h 91% 0.01in /  0.3mm 12.00 W/m2
09:20 59.5 °F /  15.3 °C 56.8 °F /  13.8 °C 29.7in /  1005.3hPa SSE 14.1mph /  22.7km/h 19mph /  30.6km/h 91% 0.01in /  0.3mm 19.00 W/m2
09:25 59.7 °F /  15.4 °C 57 °F /  13.9 °C 29.7in /  1005.3hPa South 8.9mph /  14.3km/h 20mph /  32.2km/h 91% 0.01in /  0.3mm 19.00 W/m2
09:30 59.7 °F /  15.4 °C 57 °F /  13.9 °C 29.7in /  1005.6hPa SSW 8.1mph /  13.0km/h 18mph /  29.0km/h 91% 0.01in /  0.3mm 25.00 W/m2
09:35 59.5 °F /  15.3 °C 56.8 °F /  13.8 °C 29.7in /  1005.6hPa South 10.1mph /  16.3km/h 10mph /  16.1km/h 91% 0.02in /  0.5mm 21.00 W/m2
09:40 59.4 °F /  15.2 °C 56.7 °F /  13.7 °C 29.7in /  1005.6hPa South 15mph /  24.1km/h 15mph /  24.1km/h 91% 0.03in /  0.8mm 14.00 W/m2
09:45 59.2 °F /  15.1 °C 56.8 °F /  13.8 °C 29.7in /  1005.3hPa South 17.9mph /  28.8km/h 25mph /  40.2km/h 92% 0.04in /  1.0mm 21.00 W/m2
09:50 59 °F /  15.0 °C 56.7 °F /  13.7 °C 29.7in /  1005.3hPa South 10.1mph /  16.3km/h 11mph /  17.7km/h 92% 0.04in /  1.0mm 26.00 W/m2
09:55 58.8 °F /  14.9 °C 56.8 °F /  13.8 °C 29.7in /  1005.6hPa South 10.1mph /  16.3km/h 13mph /  20.9km/h 93% 0.05in /  1.3mm 33.00 W/m2
10:00 58.8 °F /  14.9 °C 56.8 °F /  13.8 °C 29.7in /  1005.6hPa South 19mph /  30.6km/h 20mph /  32.2km/h 93% 0.06in /  1.5mm 26.00 W/m2
10:05 59 °F /  15.0 °C 57 °F /  13.9 °C 29.7in /  1005.6hPa SSE 10.1mph /  16.3km/h 18mph /  29.0km/h 93% 0.07in /  1.8mm 28.00 W/m2
10:10 59 °F /  15.0 °C 57 °F /  13.9 °C 29.7in /  1005.6hPa SSW 12.1mph /  19.5km/h 19mph /  30.6km/h 93% 0.07in /  1.8mm 32.00 W/m2
10:15 59.4 °F /  15.2 °C 57 °F /  13.9 °C 29.7in /  1005.6hPa SSW 8.9mph /  14.3km/h 18mph /  29.0km/h 92% 0.09in /  2.3mm 39.00 W/m2
10:20 59.4 °F /  15.2 °C 57 °F /  13.9 °C 29.7in /  1005.6hPa South 6mph /  9.7km/h 20mph /  32.2km/h 92% 0.09in /  2.3mm 33.00 W/m2
10:25 59.4 °F /  15.2 °C 57 °F /  13.9 °C 29.7in /  1005.6hPa South 10.1mph /  16.3km/h 14mph /  22.5km/h 92% 0.1in /  2.5mm 47.00 W/m2
10:30 59.5 °F /  15.3 °C 57.2 °F /  14.0 °C 29.7in /  1005.6hPa SSW 4mph /  6.4km/h 11mph /  17.7km/h 92% 0.11in /  2.8mm 56.00 W/m2
10:35 59.5 °F /  15.3 °C 57.2 °F /  14.0 °C 29.7in /  1005.6hPa SSW 2.9mph /  4.7km/h 14mph /  22.5km/h 92% 0.11in /  2.8mm 40.00 W/m2
10:40 59.5 °F /  15.3 °C 57.2 °F /  14.0 °C 29.7in /  1005.6hPa SSE 11mph /  17.7km/h 15mph /  24.1km/h 92% 0.11in /  2.8mm 56.00 W/m2
10:45 59.9 °F /  15.5 °C 57.2 °F /  14.0 °C 29.7in /  1005.6hPa SSW 11mph /  17.7km/h 18mph /  29.0km/h 91% 0.11in /  2.8mm 51.00 W/m2
10:50 59.9 °F /  15.5 °C 57.2 °F /  14.0 °C 29.7in /  1005.6hPa SSW 8.1mph /  13.0km/h 17mph /  27.4km/h 91% 0.09in /  2.3mm 60.00 W/m2
10:55 59.9 °F /  15.5 °C 57.2 °F /  14.0 °C 29.7in /  1005.6hPa South 13mph /  20.9km/h 13mph /  20.9km/h 91% 0.09in /  2.3mm 40.00 W/m2
11:00 59.7 °F /  15.4 °C 57 °F /  13.9 °C 29.7in /  1005.6hPa South 17mph /  27.4km/h 21mph /  33.8km/h 91% 0.1in /  2.5mm 40.00 W/m2
11:05 59.7 °F /  15.4 °C 57 °F /  13.9 °C 29.7in /  1005.6hPa South 2.9mph /  4.7km/h 18mph /  29.0km/h 91% 0.11in /  2.8mm 49.00 W/m2
11:10 59.5 °F /  15.3 °C 56.8 °F /  13.8 °C 29.7in /  1005.6hPa South 12.1mph /  19.5km/h 19mph /  30.6km/h 91% 0.11in /  2.8mm 49.00 W/m2
11:15 59.7 °F /  15.4 °C 57 °F /  13.9 °C 29.7in /  1005.6hPa SSW 2.9mph /  4.7km/h 17mph /  27.4km/h 91% 0.11in /  2.8mm 56.00 W/m2
11:20 59.7 °F /  15.4 °C 57 °F /  13.9 °C 29.7in /  1005.6hPa SSW 8.9mph /  14.3km/h 16mph /  25.7km/h 91% 0.11in /  2.8mm 79.00 W/m2
11:25 59.7 °F /  15.4 °C 57 °F /  13.9 °C 29.7in /  1005.6hPa SSW 11mph /  17.7km/h 18mph /  29.0km/h 91% 0.11in /  2.8mm 67.00 W/m2
11:30 59.7 °F /  15.4 °C 57 °F /  13.9 °C 29.7in /  1005.6hPa South 11mph /  17.7km/h 17mph /  27.4km/h 91% 0.11in /  2.8mm 81.00 W/m2
11:36 59.9 °F /  15.5 °C 57.2 °F /  14.0 °C 29.7in /  1005.3hPa South 16.1mph /  25.9km/h 18mph /  29.0km/h 91% 0.11in /  2.8mm 113.00 W/m2
11:41 59.9 °F /  15.5 °C 57.2 °F /  14.0 °C 29.7in /  1005.3hPa South 6.9mph /  11.1km/h 18mph /  29.0km/h 91% 0.1in /  2.5mm 130.00 W/m2
11:46 59.9 °F /  15.5 °C 57.2 °F /  14.0 °C 29.7in /  1005.3hPa South 12.1mph /  19.5km/h 19mph /  30.6km/h 91% 0.11in /  2.8mm 123.00 W/m2
11:51 60.1 °F /  15.6 °C 57.2 °F /  14.0 °C 29.7in /  1005.3hPa South 14.1mph /  22.7km/h 25mph /  40.2km/h 90% 0.1in /  2.5mm 149.00 W/m2
11:56 60.3 °F /  15.7 °C 57.4 °F /  14.1 °C 29.7in /  1005.6hPa SSE 17mph /  27.4km/h 18mph /  29.0km/h 90% 0.09in /  2.3mm 155.00 W/m2
12:01 60.3 °F /  15.7 °C 57.4 °F /  14.1 °C 29.7in /  1005.3hPa South 17mph /  27.4km/h 27mph /  43.4km/h 90% 0.08in /  2.0mm 181.00 W/m2
12:06 60.3 °F /  15.7 °C 57.4 °F /  14.1 °C 29.7in /  1005.6hPa SSW 11mph /  17.7km/h 14mph /  22.5km/h 90% 0.06in /  1.5mm 190.00 W/m2
12:11 60.3 °F /  15.7 °C 57.4 °F /  14.1 °C 29.7in /  1005.3hPa South 17mph /  27.4km/h 25mph /  40.2km/h 90% 0.05in /  1.3mm 178.00 W/m2
12:16 60.3 °F /  15.7 °C 57.4 °F /  14.1 °C 29.7in /  1005.3hPa SSW 12.1mph /  19.5km/h 21mph /  33.8km/h 90% 0.04in /  1.0mm 179.00 W/m2
12:21 60.3 °F /  15.7 °C 57.4 °F /  14.1 °C 29.7in /  1005.3hPa South 15mph /  24.1km/h 19mph /  30.6km/h 90% 0.04in /  1.0mm 83.00 W/m2
12:26 60.4 °F /  15.8 °C 57.2 °F /  14.0 °C 29.7in /  1005.6hPa SSW 16.1mph /  25.9km/h 22mph /  35.4km/h 89% 0.02in /  0.5mm 67.00 W/m2
12:31 60.8 °F /  16.0 °C 57.2 °F /  14.0 °C 29.7in /  1005.3hPa South 10.1mph /  16.3km/h 15mph /  24.1km/h 88% 0.02in /  0.5mm 130.00 W/m2
12:36 61.2 °F /  16.2 °C 57.6 °F /  14.2 °C 29.7in /  1005.6hPa SSW 6.9mph /  11.1km/h 15mph /  24.1km/h 88% 0.01in /  0.3mm 95.00 W/m2
12:41 61.5 °F /  16.4 °C 57.6 °F /  14.2 °C 29.7in /  1005.3hPa SE 11mph /  17.7km/h 14mph /  22.5km/h 87% 0.01in /  0.3mm 137.00 W/m2
12:46 61.7 °F /  16.5 °C 57.4 °F /  14.1 °C 29.7in /  1005.3hPa South 17.9mph /  28.8km/h 20mph /  32.2km/h 86% 0in /  0.0mm 128.00 W/m2
12:51 62.2 °F /  16.8 °C 57.9 °F /  14.4 °C 29.7in /  1005.3hPa SW 13mph /  20.9km/h 18mph /  29.0km/h 86% 0in /  0.0mm 79.00 W/m2
12:56 62.4 °F /  16.9 °C 58.1 °F /  14.5 °C 29.7in /  1005.6hPa South 6mph /  9.7km/h 18mph /  29.0km/h 86% 0in /  0.0mm 93.00 W/m2
13:01 62.6 °F /  17.0 °C 58.1 °F /  14.5 °C 29.7in /  1005.6hPa South 14.1mph /  22.7km/h 24mph /  38.6km/h 85% 0in /  0.0mm 63.00 W/m2
13:06 63 °F /  17.2 °C 58.5 °F /  14.7 °C 29.7in /  1005.6hPa SSW 6mph /  9.7km/h 18mph /  29.0km/h 85% 0in /  0.0mm 77.00 W/m2
13:11 63 °F /  17.2 °C 58.1 °F /  14.5 °C 29.7in /  1005.6hPa South 13mph /  20.9km/h 18mph /  29.0km/h 84% 0in /  0.0mm 67.00 W/m2
13:16 62.6 °F /  17.0 °C 58.1 °F /  14.5 °C 29.7in /  1005.6hPa SSW 8.1mph /  13.0km/h 22mph /  35.4km/h 85% 0in /  0.0mm 114.00 W/m2
13:21 62.2 °F /  16.8 °C 58.3 °F /  14.6 °C 29.7in /  1006.0hPa South 10.1mph /  16.3km/h 12mph /  19.3km/h 87% 0in /  0.0mm 86.00 W/m2
13:26 62.1 °F /  16.7 °C 58.1 °F /  14.5 °C 29.7in /  1006.0hPa South 11mph /  17.7km/h 21mph /  33.8km/h 87% 0in /  0.0mm 76.00 W/m2
13:31 61.9 °F /  16.6 °C 58.3 °F /  14.6 °C 29.7in /  1006.0hPa South 13mph /  20.9km/h 16mph /  25.7km/h 88% 0in /  0.0mm 77.00 W/m2
13:36 61.7 °F /  16.5 °C 58.1 °F /  14.5 °C 29.7in /  1006.3hPa South 17mph /  27.4km/h 17mph /  27.4km/h 88% 0in /  0.0mm 51.00 W/m2
13:41 61.7 °F /  16.5 °C 58.1 °F /  14.5 °C 29.7in /  1006.3hPa South 14.1mph /  22.7km/h 15mph /  24.1km/h 88% 0in /  0.0mm 37.00 W/m2
13:46 61.5 °F /  16.4 °C 58.3 °F /  14.6 °C 29.7in /  1006.0hPa SSE 8.9mph /  14.3km/h 20mph /  32.2km/h 89% 0in /  0.0mm 74.00 W/m2
13:51 61.5 °F /  16.4 °C 58.3 °F /  14.6 °C 29.7in /  1006.0hPa SSE 6.9mph /  11.1km/h 17mph /  27.4km/h 89% 0in /  0.0mm 70.00 W/m2
13:56 61.5 °F /  16.4 °C 58.6 °F /  14.8 °C 29.7in /  1006.3hPa South 12.1mph /  19.5km/h 20mph /  32.2km/h 90% 0in /  0.0mm 70.00 W/m2
14:01 61.5 °F /  16.4 °C 58.6 °F /  14.8 °C 29.7in /  1006.3hPa SSE 8.1mph /  13.0km/h 12mph /  19.3km/h 90% 0in /  0.0mm 72.00 W/m2
14:06 61.7 °F /  16.5 °C 58.8 °F /  14.9 °C 29.7in /  1006.3hPa SE 8.9mph /  14.3km/h 20mph /  32.2km/h 90% 0in /  0.0mm 44.00 W/m2
14:11 61.9 °F /  16.6 °C 58.6 °F /  14.8 °C 29.7in /  1006.0hPa SSW 11mph /  17.7km/h 21mph /  33.8km/h 89% 0in /  0.0mm 46.00 W/m2
14:16 62.6 °F /  17.0 °C 59 °F /  15.0 °C 29.7in /  1006.0hPa WSW 12.1mph /  19.5km/h 27mph /  43.4km/h 88% 0in /  0.0mm 35.00 W/m2
14:21 63.1 °F /  17.3 °C 59.2 °F /  15.1 °C 29.7in /  1006.0hPa SSW 4.9mph /  7.9km/h 16mph /  25.7km/h 87% 0in /  0.0mm 40.00 W/m2
14:26 63.5 °F /  17.5 °C 59.2 °F /  15.1 °C 29.7in /  1006.0hPa South 12.1mph /  19.5km/h 18mph /  29.0km/h 86% 0in /  0.0mm 63.00 W/m2
14:31 63.9 °F /  17.7 °C 59.5 °F /  15.3 °C 29.7in /  1005.6hPa South 10.1mph /  16.3km/h 23mph /  37.0km/h 86% 0in /  0.0mm 144.00 W/m2
14:36 64.2 °F /  17.9 °C 59.5 °F /  15.3 °C 29.7in /  1005.6hPa WSW 6mph /  9.7km/h 13mph /  20.9km/h 85% 0in /  0.0mm 151.00 W/m2
14:41 64.4 °F /  18.0 °C 59.7 °F /  15.4 °C 29.7in /  1006.0hPa South 8.9mph /  14.3km/h 22mph /  35.4km/h 85% 0in /  0.0mm 128.00 W/m2
14:46 64.6 °F /  18.1 °C 59.9 °F /  15.5 °C 29.7in /  1006.0hPa South 21.9mph /  35.2km/h 22mph /  35.4km/h 85% 0in /  0.0mm 121.00 W/m2
14:51 64.4 °F /  18.0 °C 59.7 °F /  15.4 °C 29.7in /  1006.3hPa SW 6mph /  9.7km/h 20mph /  32.2km/h 85% 0in /  0.0mm 83.00 W/m2
14:56 64 °F /  17.8 °C 59.7 °F /  15.4 °C 29.7in /  1006.3hPa South 10.1mph /  16.3km/h 11mph /  17.7km/h 86% 0in /  0.0mm 54.00 W/m2
15:01 63.9 °F /  17.7 °C 59.5 °F /  15.3 °C 29.7in /  1006.3hPa SW 6mph /  9.7km/h 14mph /  22.5km/h 86% 0in /  0.0mm 33.00 W/m2
15:06 63.7 °F /  17.6 °C 59.7 °F /  15.4 °C 29.7in /  1006.3hPa SW 8.9mph /  14.3km/h 22mph /  35.4km/h 87% 0in /  0.0mm 32.00 W/m2
15:11 63.5 °F /  17.5 °C 59.9 °F /  15.5 °C 29.7in /  1006.3hPa South 13mph /  20.9km/h 19mph /  30.6km/h 88% 0in /  0.0mm 53.00 W/m2
15:16 63.3 °F /  17.4 °C 59.7 °F /  15.4 °C 29.7in /  1006.3hPa South 6.9mph /  11.1km/h 8mph /  12.9km/h 88% 0in /  0.0mm 62.00 W/m2
15:21 63 °F /  17.2 °C 59.7 °F /  15.4 °C 29.7in /  1006.3hPa South 8.1mph /  13.0km/h 14mph /  22.5km/h 89% 0in /  0.0mm 60.00 W/m2
15:26 63 °F /  17.2 °C 59.7 °F /  15.4 °C 29.7in /  1006.3hPa South 11mph /  17.7km/h 15mph /  24.1km/h 89% 0in /  0.0mm 60.00 W/m2
15:31 63.5 °F /  17.5 °C 59.9 °F /  15.5 °C 29.7in /  1006.3hPa SSE 8.1mph /  13.0km/h 12mph /  19.3km/h 88% 0in /  0.0mm 70.00 W/m2
15:36 63.9 °F /  17.7 °C 60.3 °F /  15.7 °C 29.7in /  1006.3hPa South 6.9mph /  11.1km/h 16mph /  25.7km/h 88% 0in /  0.0mm 51.00 W/m2
15:41 64 °F /  17.8 °C 60.1 °F /  15.6 °C 29.7in /  1006.3hPa SSW 8.1mph /  13.0km/h 18mph /  29.0km/h 87% 0in /  0.0mm 53.00 W/m2
15:46 64.2 °F /  17.9 °C 60.3 °F /  15.7 °C 29.7in /  1006.3hPa South 10.1mph /  16.3km/h 15mph /  24.1km/h 87% 0in /  0.0mm 65.00 W/m2
15:51 64.8 °F /  18.2 °C 60.4 °F /  15.8 °C 29.7in /  1006.3hPa South 6mph /  9.7km/h 22mph /  35.4km/h 86% 0in /  0.0mm 60.00 W/m2
15:56 64.9 °F /  18.3 °C 60.6 °F /  15.9 °C 29.7in /  1006.3hPa SSW 6mph /  9.7km/h 13mph /  20.9km/h 86% 0in /  0.0mm 76.00 W/m2
16:01 65.1 °F /  18.4 °C 60.8 °F /  16.0 °C 29.7in /  1006.3hPa SSW 4.9mph /  7.9km/h 21mph /  33.8km/h 86% 0in /  0.0mm 100.00 W/m2
16:06 65.1 °F /  18.4 °C 60.4 °F /  15.8 °C 29.7in /  1006.3hPa SSE 2.9mph /  4.7km/h 24mph /  38.6km/h 85% 0in /  0.0mm 62.00 W/m2
16:11 65.1 °F /  18.4 °C 60.4 °F /  15.8 °C 29.7in /  1006.3hPa SSW 11mph /  17.7km/h 20mph /  32.2km/h 85% 0in /  0.0mm 32.00 W/m2
16:16 64.8 °F /  18.2 °C 60.4 °F /  15.8 °C 29.7in /  1006.3hPa SSW 14.1mph /  22.7km/h 15mph /  24.1km/h 86% 0in /  0.0mm 14.00 W/m2
16:21 64.2 °F /  17.9 °C 60.3 °F /  15.7 °C 29.7in /  1006.3hPa South 6.9mph /  11.1km/h 15mph /  24.1km/h 87% 0in /  0.0mm 11.00 W/m2
16:26 63.7 °F /  17.6 °C 60.1 °F /  15.6 °C 29.7in /  1006.7hPa South 8.9mph /  14.3km/h 19mph /  30.6km/h 88% 0in /  0.0mm 12.00 W/m2
16:31 63.3 °F /  17.4 °C 60.1 °F /  15.6 °C 29.7in /  1006.3hPa SSE 11mph /  17.7km/h 11mph /  17.7km/h 89% 0in /  0.0mm 11.00 W/m2
16:36 63.3 °F /  17.4 °C 60.1 °F /  15.6 °C 29.7in /  1006.3hPa SSW 8.9mph /  14.3km/h 17mph /  27.4km/h 89% 0in /  0.0mm 12.00 W/m2
16:41 63.3 °F /  17.4 °C 60.1 °F /  15.6 °C 29.7in /  1006.3hPa SSW 6mph /  9.7km/h 10mph /  16.1km/h 89% 0in /  0.0mm 12.00 W/m2
16:46 63.3 °F /  17.4 °C 60.1 °F /  15.6 °C 29.7in /  1006.3hPa SSE 8.9mph /  14.3km/h 12mph /  19.3km/h 89% 0in /  0.0mm 9.00 W/m2
16:51 63.5 °F /  17.5 °C 60.3 °F /  15.7 °C 29.7in /  1006.3hPa South 17mph /  27.4km/h 17mph /  27.4km/h 89% 0in /  0.0mm 21.00 W/m2
16:56 63.9 °F /  17.7 °C 60.3 °F /  15.7 °C 29.7in /  1006.3hPa SSW 8.1mph /  13.0km/h 14mph /  22.5km/h 88% 0in /  0.0mm 18.00 W/m2
17:01 63.9 °F /  17.7 °C 60.3 °F /  15.7 °C 29.7in /  1006.3hPa West 6.9mph /  11.1km/h 18mph /  29.0km/h 88% 0in /  0.0mm 9.00 W/m2
17:06 63.9 °F /  17.7 °C 60.3 °F /  15.7 °C 29.7in /  1006.3hPa SSW 10.1mph /  16.3km/h 22mph /  35.4km/h 88% 0in /  0.0mm 9.00 W/m2
17:11 63.9 °F /  17.7 °C 60.6 °F /  15.9 °C 29.7in /  1006.3hPa South 6.9mph /  11.1km/h 26mph /  41.8km/h 89% 0in /  0.0mm 7.00 W/m2
17:16 63.5 °F /  17.5 °C 60.3 °F /  15.7 °C 29.7in /  1006.3hPa SSW 6.9mph /  11.1km/h 14mph /  22.5km/h 89% 0in /  0.0mm 7.00 W/m2
17:21 63.3 °F /  17.4 °C 60.1 °F /  15.6 °C 29.7in /  1006.0hPa South 19mph /  30.6km/h 22mph /  35.4km/h 89% 0in /  0.0mm 18.00 W/m2
17:26 63.5 °F /  17.5 °C 60.3 °F /  15.7 °C 29.7in /  1006.0hPa SW 10.1mph /  16.3km/h 16mph /  25.7km/h 89% 0in /  0.0mm 11.00 W/m2
17:31 63.5 °F /  17.5 °C 60.3 °F /  15.7 °C 29.7in /  1006.3hPa SSW 4mph /  6.4km/h 10mph /  16.1km/h 89% 0in /  0.0mm 7.00 W/m2
17:36 63.9 °F /  17.7 °C 60.6 °F /  15.9 °C 29.7in /  1006.3hPa South 4mph /  6.4km/h 26mph /  41.8km/h 89% 0in /  0.0mm 9.00 W/m2
17:41 63.9 °F /  17.7 °C 60.6 °F /  15.9 °C 29.7in /  1006.7hPa SW 17mph /  27.4km/h 21mph /  33.8km/h 89% 0in /  0.0mm 5.00 W/m2
17:46 63.9 °F /  17.7 °C 60.6 °F /  15.9 °C 29.7in /  1006.7hPa SW 16.1mph /  25.9km/h 20mph /  32.2km/h 89% 0in /  0.0mm 5.00 W/m2
17:51 63.9 °F /  17.7 °C 60.6 °F /  15.9 °C 29.7in /  1007.0hPa SW 4mph /  6.4km/h 15mph /  24.1km/h 89% 0in /  0.0mm 0.00 W/m2
17:56 63.9 °F /  17.7 °C 60.6 °F /  15.9 °C 29.7in /  1007.0hPa SSW 6.9mph /  11.1km/h 19mph /  30.6km/h 89% 0in /  0.0mm 0.00 W/m2
18:01 63.7 °F /  17.6 °C 60.4 °F /  15.8 °C 29.7in /  1007.0hPa South 15mph /  24.1km/h 15mph /  24.1km/h 89% 0in /  0.0mm 0.00 W/m2
18:06 63.9 °F /  17.7 °C 60.6 °F /  15.9 °C 29.7in /  1007.0hPa South 4.9mph /  7.9km/h 17mph /  27.4km/h 89% 0in /  0.0mm 0.00 W/m2
18:11 64 °F /  17.8 °C 60.4 °F /  15.8 °C 29.7in /  1006.7hPa SSW 10.1mph /  16.3km/h 25mph /  40.2km/h 88% 0in /  0.0mm 0.00 W/m2
18:16 64.2 °F /  17.9 °C 60.6 °F /  15.9 °C 29.7in /  1007.0hPa South 8.9mph /  14.3km/h 16mph /  25.7km/h 88% 0in /  0.0mm 0.00 W/m2
18:21 64.2 °F /  17.9 °C 60.6 °F /  15.9 °C 29.7in /  1007.0hPa SSE 21mph /  33.8km/h 21mph /  33.8km/h 88% 0in /  0.0mm 0.00 W/m2
18:26 64.4 °F /  18.0 °C 60.8 °F /  16.0 °C 29.7in /  1007.0hPa SSW 16.1mph /  25.9km/h 19mph /  30.6km/h 88% 0in /  0.0mm 0.00 W/m2
18:31 64.4 °F /  18.0 °C 60.8 °F /  16.0 °C 29.7in /  1007.0hPa SSW 8.9mph /  14.3km/h 17mph /  27.4km/h 88% 0in /  0.0mm 0.00 W/m2
18:36 64.2 °F /  17.9 °C 60.6 °F /  15.9 °C 29.7in /  1007.3hPa SW 11mph /  17.7km/h 21mph /  33.8km/h 88% 0in /  0.0mm 0.00 W/m2
18:41 64.2 °F /  17.9 °C 60.6 °F /  15.9 °C 29.7in /  1007.3hPa South 8.1mph /  13.0km/h 17mph /  27.4km/h 88% 0in /  0.0mm 0.00 W/m2
18:46 64 °F /  17.8 °C 60.4 °F /  15.8 °C 29.7in /  1007.3hPa SSE 6mph /  9.7km/h 14mph /  22.5km/h 88% 0in /  0.0mm 0.00 W/m2
18:51 63.9 °F /  17.7 °C 60.6 °F /  15.9 °C 29.7in /  1007.0hPa SSW 15mph /  24.1km/h 20mph /  32.2km/h 89% 0in /  0.0mm 0.00 W/m2
18:56 63.7 °F /  17.6 °C 60.4 °F /  15.8 °C 29.7in /  1007.3hPa SSW 6.9mph /  11.1km/h 20mph /  32.2km/h 89% 0.01in /  0.3mm 0.00 W/m2
19:01 63.5 °F /  17.5 °C 60.3 °F /  15.7 °C 29.7in /  1007.0hPa South 8.9mph /  14.3km/h 25mph /  40.2km/h 89% 0.01in /  0.3mm 0.00 W/m2
19:06 63.7 °F /  17.6 °C 60.4 °F /  15.8 °C 29.7in /  1007.0hPa SW 13mph /  20.9km/h 20mph /  32.2km/h 89% 0.01in /  0.3mm 0.00 W/m2
19:11 63.7 °F /  17.6 °C 60.4 °F /  15.8 °C 29.7in /  1007.0hPa South 6.9mph /  11.1km/h 17mph /  27.4km/h 89% 0.01in /  0.3mm 0.00 W/m2
19:16 63.9 °F /  17.7 °C 60.3 °F /  15.7 °C 29.7in /  1007.3hPa South 11mph /  17.7km/h 15mph /  24.1km/h 88% 0.01in /  0.3mm 0.00 W/m2
19:21 63.7 °F /  17.6 °C 60.4 °F /  15.8 °C 29.7in /  1007.0hPa South 6.9mph /  11.1km/h 16mph /  25.7km/h 89% 0.01in /  0.3mm 0.00 W/m2
19:26 63.9 °F /  17.7 °C 60.6 °F /  15.9 °C 29.7in /  1007.3hPa SSE 6.9mph /  11.1km/h 16mph /  25.7km/h 89% 0.01in /  0.3mm 0.00 W/m2
19:31 63.9 °F /  17.7 °C 60.3 °F /  15.7 °C 29.7in /  1007.3hPa WSW 4.9mph /  7.9km/h 16mph /  25.7km/h 88% 0.01in /  0.3mm 0.00 W/m2
19:36 64 °F /  17.8 °C 60.4 °F /  15.8 °C 29.7in /  1007.0hPa SSW 6mph /  9.7km/h 18mph /  29.0km/h 88% 0.01in /  0.3mm 0.00 W/m2
19:41 64 °F /  17.8 °C 60.4 °F /  15.8 °C 29.7in /  1007.3hPa SSW 15mph /  24.1km/h 19mph /  30.6km/h 88% 0.01in /  0.3mm 0.00 W/m2
19:46 64.2 °F /  17.9 °C 60.6 °F /  15.9 °C 29.7in /  1007.3hPa SSW 11mph /  17.7km/h 22mph /  35.4km/h 88% 0.01in /  0.3mm 0.00 W/m2
19:51 64.4 °F /  18.0 °C 60.4 °F /  15.8 °C 29.7in /  1007.3hPa South 10.1mph /  16.3km/h 22mph /  35.4km/h 87% 0.01in /  0.3mm 0.00 W/m2
19:56 64.6 °F /  18.1 °C 60.6 °F /  15.9 °C 29.8in /  1007.7hPa South 10.1mph /  16.3km/h 18mph /  29.0km/h 87% 0in /  0.0mm 0.00 W/m2
20:01 64.8 °F /  18.2 °C 60.8 °F /  16.0 °C 29.8in /  1008.0hPa South 8.9mph /  14.3km/h 15mph /  24.1km/h 87% 0in /  0.0mm 0.00 W/m2
20:06 64.8 °F /  18.2 °C 60.8 °F /  16.0 °C 29.8in /  1007.7hPa SW 2.9mph /  4.7km/h 18mph /  29.0km/h 87% 0in /  0.0mm 0.00 W/m2
20:11 64.8 °F /  18.2 °C 60.8 °F /  16.0 °C 29.8in /  1007.7hPa South 16.1mph /  25.9km/h 26mph /  41.8km/h 87% 0in /  0.0mm 0.00 W/m2
20:16 64.6 °F /  18.1 °C 61 °F /  16.1 °C 29.8in /  1008.0hPa SSW 10.1mph /  16.3km/h 21mph /  33.8km/h 88% 0in /  0.0mm 0.00 W/m2
20:21 64.4 °F /  18.0 °C 60.8 °F /  16.0 °C 29.8in /  1008.0hPa South 4mph /  6.4km/h 25mph /  40.2km/h 88% 0in /  0.0mm 0.00 W/m2
20:26 64.4 °F /  18.0 °C 60.8 °F /  16.0 °C 29.8in /  1008.0hPa SW 10.1mph /  16.3km/h 17mph /  27.4km/h 88% 0in /  0.0mm 0.00 W/m2
20:31 64.4 °F /  18.0 °C 61.2 °F /  16.2 °C 29.8in /  1007.7hPa South 11mph /  17.7km/h 25mph /  40.2km/h 89% 0in /  0.0mm 0.00 W/m2
20:36 64.4 °F /  18.0 °C 61.2 °F /  16.2 °C 29.8in /  1007.7hPa South 8.1mph /  13.0km/h 11mph /  17.7km/h 89% 0in /  0.0mm 0.00 W/m2
20:42 64.4 °F /  18.0 °C 61.2 °F /  16.2 °C 29.8in /  1007.7hPa South 6mph /  9.7km/h 19mph /  30.6km/h 89% 0in /  0.0mm 0.00 W/m2
20:47 64.2 °F /  17.9 °C 61 °F /  16.1 °C 29.8in /  1007.7hPa SW 4mph /  6.4km/h 12mph /  19.3km/h 89% 0in /  0.0mm 0.00 W/m2
20:52 64.2 °F /  17.9 °C 61 °F /  16.1 °C 29.8in /  1007.7hPa SSW 17mph /  27.4km/h 17mph /  27.4km/h 89% 0in /  0.0mm 0.00 W/m2
20:57 64.2 °F /  17.9 °C 61 °F /  16.1 °C 29.7in /  1007.3hPa South 8.9mph /  14.3km/h 18mph /  29.0km/h 89% 0in /  0.0mm 0.00 W/m2
21:02 64.2 °F /  17.9 °C 61 °F /  16.1 °C 29.7in /  1007.3hPa SSE 8.9mph /  14.3km/h 21mph /  33.8km/h 89% 0in /  0.0mm 0.00 W/m2
21:07 64.2 °F /  17.9 °C 61 °F /  16.1 °C 29.7in /  1007.3hPa SW 8.1mph /  13.0km/h 23mph /  37.0km/h 89% 0in /  0.0mm 0.00 W/m2
21:12 64.4 °F /  18.0 °C 61.2 °F /  16.2 °C 29.8in /  1007.7hPa SW 16.1mph /  25.9km/h 16mph /  25.7km/h 89% 0in /  0.0mm 0.00 W/m2
21:17 64.4 °F /  18.0 °C 61.2 °F /  16.2 °C 29.8in /  1007.7hPa SSW 6mph /  9.7km/h 17mph /  27.4km/h 89% 0in /  0.0mm 0.00 W/m2
21:22 64.4 °F /  18.0 °C 61.2 °F /  16.2 °C 29.8in /  1007.7hPa SW 10.1mph /  16.3km/h 18mph /  29.0km/h 89% 0in /  0.0mm 0.00 W/m2
21:27 64.4 °F /  18.0 °C 61.2 °F /  16.2 °C 29.8in /  1007.7hPa SSW 11mph /  17.7km/h 25mph /  40.2km/h 89% 0in /  0.0mm 0.00 W/m2
21:32 64.6 °F /  18.1 °C 61.3 °F /  16.3 °C 29.8in /  1007.7hPa South 8.9mph /  14.3km/h 20mph /  32.2km/h 89% 0in /  0.0mm 0.00 W/m2
21:37 64.6 °F /  18.1 °C 61.3 °F /  16.3 °C 29.8in /  1007.7hPa South 8.9mph /  14.3km/h 21mph /  33.8km/h 89% 0in /  0.0mm 0.00 W/m2
21:42 64.4 °F /  18.0 °C 61.3 °F /  16.3 °C 29.8in /  1007.7hPa SW 13mph /  20.9km/h 22mph /  35.4km/h 90% 0in /  0.0mm 0.00 W/m2
21:47 64.4 °F /  18.0 °C 61.3 °F /  16.3 °C 29.8in /  1007.7hPa SW 6mph /  9.7km/h 20mph /  32.2km/h 90% 0in /  0.0mm 0.00 W/m2
21:52 64.4 °F /  18.0 °C 61.3 °F /  16.3 °C 29.8in /  1008.0hPa SSW 10.1mph /  16.3km/h 18mph /  29.0km/h 90% 0in /  0.0mm 0.00 W/m2
21:57 64.4 °F /  18.0 °C 61.3 °F /  16.3 °C 29.8in /  1008.0hPa South 15mph /  24.1km/h 17mph /  27.4km/h 90% 0in /  0.0mm 0.00 W/m2
22:02 64.4 °F /  18.0 °C 61.3 °F /  16.3 °C 29.8in /  1008.0hPa SSW 11mph /  17.7km/h 18mph /  29.0km/h 90% 0in /  0.0mm 0.00 W/m2
22:07 64.4 °F /  18.0 °C 61.3 °F /  16.3 °C 29.8in /  1007.7hPa South 15mph /  24.1km/h 23mph /  37.0km/h 90% 0in /  0.0mm 0.00 W/m2
22:12 64.2 °F /  17.9 °C 61.2 °F /  16.2 °C 29.8in /  1008.0hPa SSE 15mph /  24.1km/h 21mph /  33.8km/h 90% 0in /  0.0mm 0.00 W/m2
22:17 64.2 °F /  17.9 °C 61.2 °F /  16.2 °C 29.8in /  1008.0hPa WSW 11mph /  17.7km/h 18mph /  29.0km/h 90% 0in /  0.0mm 0.00 W/m2
22:22 64.2 °F /  17.9 °C 61.5 °F /  16.4 °C 29.8in /  1008.0hPa SSW 6.9mph /  11.1km/h 21mph /  33.8km/h 91% 0in /  0.0mm 0.00 W/m2
22:27 64.2 °F /  17.9 °C 61.5 °F /  16.4 °C 29.8in /  1008.0hPa South 8.1mph /  13.0km/h 18mph /  29.0km/h 91% 0in /  0.0mm 0.00 W/m2
22:32 64 °F /  17.8 °C 61.3 °F /  16.3 °C 29.8in /  1008.0hPa SSW 8.1mph /  13.0km/h 21mph /  33.8km/h 91% 0in /  0.0mm 0.00 W/m2
22:37 64 °F /  17.8 °C 61.3 °F /  16.3 °C 29.8in /  1008.0hPa SSE 6.9mph /  11.1km/h 20mph /  32.2km/h 91% 0in /  0.0mm 0.00 W/m2
22:42 64 °F /  17.8 °C 61.3 °F /  16.3 °C 29.8in /  1007.7hPa SSW 8.1mph /  13.0km/h 19mph /  30.6km/h 91% 0in /  0.0mm 0.00 W/m2
22:47 64 °F /  17.8 °C 61.3 °F /  16.3 °C 29.8in /  1007.7hPa South 13mph /  20.9km/h 20mph /  32.2km/h 91% 0in /  0.0mm 0.00 W/m2
22:52 64 °F /  17.8 °C 61.3 °F /  16.3 °C 29.8in /  1007.7hPa SSW 6.9mph /  11.1km/h 17mph /  27.4km/h 91% 0in /  0.0mm 0.00 W/m2
22:57 64.2 °F /  17.9 °C 61.5 °F /  16.4 °C 29.8in /  1007.7hPa SSW 8.1mph /  13.0km/h 28mph /  45.1km/h 91% 0in /  0.0mm 0.00 W/m2
23:02 64.2 °F /  17.9 °C 61.5 °F /  16.4 °C 29.8in /  1007.7hPa SSW 36mph /  57.9km/h 36mph /  57.9km/h 91% 0in /  0.0mm 0.00 W/m2
23:07 64.2 °F /  17.9 °C 61.5 °F /  16.4 °C 29.8in /  1007.7hPa South 17mph /  27.4km/h 27mph /  43.4km/h 91% 0in /  0.0mm 0.00 W/m2
23:12 64.2 °F /  17.9 °C 61.5 °F /  16.4 °C 29.8in /  1008.0hPa South 6.9mph /  11.1km/h 18mph /  29.0km/h 91% 0in /  0.0mm 0.00 W/m2
23:17 64.2 °F /  17.9 °C 61.5 °F /  16.4 °C 29.8in /  1008.0hPa SSW 8.1mph /  13.0km/h 16mph /  25.7km/h 91% 0in /  0.0mm 0.00 W/m2
23:22 64.2 °F /  17.9 °C 61.5 °F /  16.4 °C 29.8in /  1008.0hPa SSW 6.9mph /  11.1km/h 20mph /  32.2km/h 91% 0in /  0.0mm 0.00 W/m2
23:27 64.2 °F /  17.9 °C 61.5 °F /  16.4 °C 29.8in /  1008.0hPa SSW 8.9mph /  14.3km/h 18mph /  29.0km/h 91% 0in /  0.0mm 0.00 W/m2
23:32 64 °F /  17.8 °C 61.7 °F /  16.5 °C 29.8in /  1008.0hPa South 8.9mph /  14.3km/h 14mph /  22.5km/h 92% 0in /  0.0mm 0.00 W/m2
23:37 63.9 °F /  17.7 °C 61.5 °F /  16.4 °C 29.8in /  1008.0hPa SSW 17.9mph /  28.8km/h 18mph /  29.0km/h 92% 0in /  0.0mm 0.00 W/m2
23:42 63.9 °F /  17.7 °C 61.5 °F /  16.4 °C 29.8in /  1008.4hPa SSW 4.9mph /  7.9km/h 12mph /  19.3km/h 92% 0in /  0.0mm 0.00 W/m2
23:47 63.9 °F /  17.7 °C 61.9 °F /  16.6 °C 29.8in /  1008.4hPa South 14.1mph /  22.7km/h 16mph /  25.7km/h 93% 0in /  0.0mm 0.00 W/m2
23:52 63.9 °F /  17.7 °C 61.9 °F /  16.6 °C 29.8in /  1008.0hPa SSW 12.1mph /  19.5km/h 18mph /  29.0km/h 93% 0in /  0.0mm 0.00 W/m2
23:57 63.7 °F /  17.6 °C 61.7 °F /  16.5 °C 29.8in /  1008.0hPa SW 4mph /  6.4km/h 12mph /  19.3km/h 93% 0in /  0.0mm 0.00 W/m2